Silverton, Ohio
Current Conditions -  °F | °C
As of 9:53 PM on Wednesday 22 Oct 2014 (Local Time) from KLUK Reporting Station
Overcast Overcast  
Wind Chill: 50°   Ceiling: 3000
Heat Index: 50°   Visibility: 10mi
Dew Point: 40°   Wind: 8mph
Humidity: 68%   Direction: 30°NNE
Pressure: 30.29"   Gusts: NA
Location:  39.2094°N, 84.3952°W
Report Text: KLUK 230153Z 03007KT 10SM OVC030 10/04 A3029 RMK AO2 SLP259 T01000044
Loading
Personal Weather Stations






























Interactive Weather Map
Tropical Storm Tracking
New forecast layout! Learn more

10-Day Weather Forecast

Advertisements
Track Severe Weather on mobile